Time;durP1;ratioP1;P1;durP2;ratioP2;P2;SDS_P1;SDS_P2;PMS_P1;PMS_P2;Temp;Humidity;BMP_temperature;BMP_pressure;BME280_temperature;BME280_humidity;BME280_pressure;Samples;Min_cycle;Max_cycle;Signal;HPM_P1;HPM_P2
2022/02/21 00:01:30;;;;;;;7.82;1.00;;;5.70;99.90;;;;;;5018157;28;20107;-59
2022/02/21 00:03:57;;;;;;;5.43;1.20;;;5.70;99.90;;;;;;5021857;28;20533;-59
2022/02/21 00:06:22;;;;;;;2.70;0.45;;;5.70;99.90;;;;;;5015473;28;20056;-58
2022/02/21 00:08:48;;;;;;;4.50;0.90;;;5.70;99.90;;;;;;5045318;28;20478;-58
2022/02/21 00:11:14;;;;;;;5.07;1.30;;;5.70;99.90;;;;;;5036188;28;20059;-57
2022/02/21 00:13:39;;;;;;;4.10;0.80;;;5.70;99.90;;;;;;5034191;28;20060;-56
2022/02/21 00:16:05;;;;;;;3.22;1.00;;;5.70;99.90;;;;;;5032944;28;20048;-58
2022/02/21 00:18:31;;;;;;;2.83;0.70;;;5.70;99.90;;;;;;5037392;28;20045;-59
2022/02/21 00:20:56;;;;;;;3.55;0.50;;;5.60;99.90;;;;;;5047052;28;20106;-59
2022/02/21 00:23:22;;;;;;;4.90;0.90;;;5.60;99.90;;;;;;5040035;28;20036;-59
2022/02/21 00:25:47;;;;;;;3.33;0.73;;;5.60;99.90;;;;;;5035015;28;20021;-59
2022/02/21 00:28:13;;;;;;;5.05;1.15;;;5.50;99.90;;;;;;5030674;28;20037;-58
2022/02/21 00:30:38;;;;;;;3.92;0.90;;;5.50;99.90;;;;;;5037218;28;20025;-57
2022/02/21 00:33:04;;;;;;;6.95;1.05;;;5.50;99.90;;;;;;5041256;28;20049;-57
2022/02/21 00:35:29;;;;;;;9.68;1.77;;;5.50;99.90;;;;;;5036458;28;20481;-59
2022/02/21 00:37:55;;;;;;;7.65;0.95;;;5.50;99.90;;;;;;5040863;28;20056;-59
2022/02/21 00:40:21;;;;;;;6.75;2.35;;;5.50;99.90;;;;;;5044815;28;20037;-59
2022/02/21 00:42:47;;;;;;;9.18;1.35;;;5.50;99.90;;;;;;5042262;28;20072;-60
2022/02/21 00:45:12;;;;;;;12.43;1.35;;;5.50;99.90;;;;;;5037554;28;20546;-59
2022/02/21 00:47:41;;;;;;;11.20;1.33;;;5.50;99.90;;;;;;5047163;28;20523;-59
2022/02/21 00:50:07;;;;;;;3.15;1.02;;;5.50;99.90;;;;;;5045192;28;20028;-59
2022/02/21 00:52:33;;;;;;;9.60;1.65;;;5.50;99.90;;;;;;5050755;28;20113;-58
2022/02/21 00:54:59;;;;;;;7.53;1.50;;;5.50;99.90;;;;;;5041146;28;20117;-57
2022/02/21 00:57:24;;;;;;;8.23;2.25;;;5.50;99.90;;;;;;5041235;28;20488;-57
2022/02/21 00:59:50;;;;;;;9.60;1.85;;;5.50;99.90;;;;;;5043200;28;20068;-59
2022/02/21 01:02:15;;;;;;;5.70;1.40;;;5.50;99.90;;;;;;5039252;28;20045;-59
2022/02/21 01:04:41;;;;;;;4.28;1.00;;;5.60;99.90;;;;;;5037439;28;20025;-59
2022/02/21 01:07:06;;;;;;;10.68;2.00;;;5.60;99.90;;;;;;5035958;28;20068;-59
2022/02/21 01:09:32;;;;;;;12.93;1.40;;;5.60;99.90;;;;;;5044211;28;20073;-57
2022/02/21 01:11:58;;;;;;;8.05;1.65;;;5.60;99.90;;;;;;5037297;28;21035;-58
2022/02/21 01:14:23;;;;;;;6.72;1.45;;;5.60;99.90;;;;;;5035636;28;20029;-58
2022/02/21 01:16:49;;;;;;;7.95;1.70;;;5.60;99.90;;;;;;5035455;28;20452;-59
2022/02/21 01:19:14;;;;;;;14.20;2.50;;;5.60;99.90;;;;;;5042539;28;20045;-59
2022/02/21 01:21:40;;;;;;;8.52;2.20;;;5.70;99.90;;;;;;5036316;28;20043;-59
2022/02/21 01:24:06;;;;;;;14.85;2.05;;;5.70;99.90;;;;;;5037888;28;20033;-59
2022/02/21 01:26:32;;;;;;;11.75;1.75;;;5.80;99.90;;;;;;5042727;28;20033;-60
2022/02/21 01:28:57;;;;;;;6.70;1.25;;;5.80;99.90;;;;;;5036968;28;20067;-58
2022/02/21 01:31:23;;;;;;;1.90;0.50;;;5.50;99.90;;;;;;5045115;28;20044;-58
2022/02/21 01:33:49;;;;;;;5.72;0.93;;;4.80;99.90;;;;;;5049910;28;20699;-58
2022/02/21 01:36:14;;;;;;;6.22;0.93;;;4.30;99.90;;;;;;5033310;28;20406;-57
2022/02/21 01:38:40;;;;;;;8.18;1.90;;;4.10;99.90;;;;;;5011945;28;20501;-59
2022/02/21 01:41:06;;;;;;;9.88;1.38;;;3.90;99.90;;;;;;5037629;28;20496;-58
2022/02/21 01:43:32;;;;;;;10.18;2.55;;;3.80;99.90;;;;;;5034900;28;20036;-59
2022/02/21 01:45:58;;;;;;;7.07;2.33;;;3.80;99.90;;;;;;5040654;28;20032;-57
2022/02/21 01:48:23;;;;;;;12.07;3.75;;;3.80;99.90;;;;;;5039443;28;20031;-58
2022/02/21 01:50:49;;;;;;;10.43;3.90;;;3.80;99.90;;;;;;5041191;28;20057;-59
2022/02/21 01:53:16;;;;;;;13.18;3.22;;;3.90;99.90;;;;;;5039842;28;20774;-59
2022/02/21 01:55:43;;;;;;;12.25;3.13;;;3.90;99.90;;;;;;5040762;28;20033;-58
2022/02/21 01:58:10;;;;;;;14.55;2.55;;;4.00;99.90;;;;;;5039512;28;20056;-59
2022/02/21 02:00:36;;;;;;;9.57;2.45;;;4.00;99.90;;;;;;5040629;28;20040;-59
2022/02/21 02:03:02;;;;;;;7.50;2.00;;;4.00;99.90;;;;;;5042479;28;20025;-59
2022/02/21 02:05:28;;;;;;;8.05;2.22;;;4.10;99.90;;;;;;5040323;28;20061;-57
2022/02/21 02:07:53;;;;;;;7.88;1.77;;;4.10;99.90;;;;;;5025815;28;20036;-60
2022/02/21 02:10:19;;;;;;;8.75;1.60;;;4.10;99.90;;;;;;5044732;28;20497;-58
2022/02/21 02:12:45;;;;;;;6.82;1.10;;;4.20;99.90;;;;;;5034720;28;20131;-58
2022/02/21 02:15:16;;;;;;;10.55;1.30;;;4.20;99.90;;;;;;5034464;28;20030;-59
2022/02/21 02:17:42;;;;;;;9.25;1.42;;;4.20;99.90;;;;;;5041280;28;20083;-59
2022/02/21 02:20:10;;;;;;;13.25;1.50;;;4.20;99.90;;;;;;5032849;28;20037;-58
2022/02/21 02:22:37;;;;;;;8.20;1.30;;;4.20;99.90;;;;;;5040070;28;20037;-58
2022/02/21 02:25:03;;;;;;;10.20;1.30;;;4.30;99.90;;;;;;5041136;28;20033;-59
2022/02/21 02:27:29;;;;;;;16.50;1.90;;;4.30;99.90;;;;;;5035264;28;20132;-55
2022/02/21 02:29:58;;;;;;;13.32;2.00;;;4.30;99.90;;;;;;5037726;28;20124;-60
2022/02/21 02:32:24;;;;;;;9.95;1.80;;;4.30;99.90;;;;;;5041317;28;20029;-59
2022/02/21 02:34:52;;;;;;;6.95;1.33;;;4.30;99.90;;;;;;5038036;28;20033;-59
2022/02/21 02:37:20;;;;;;;14.20;1.63;;;4.30;99.90;;;;;;5046945;28;20411;-59
2022/02/21 02:39:45;;;;;;;5.85;1.20;;;4.30;99.90;;;;;;5035972;28;20056;-59
2022/02/21 02:42:11;;;;;;;4.85;1.13;;;4.20;99.90;;;;;;5038546;28;20483;-59
2022/02/21 02:44:36;;;;;;;10.68;1.48;;;4.20;99.90;;;;;;5036592;28;20048;-59
2022/02/21 02:47:06;;;;;;;8.55;1.88;;;4.10;99.90;;;;;;5034417;28;20025;-59
2022/02/21 02:49:32;;;;;;;10.18;1.85;;;4.10;99.90;;;;;;5039067;28;20021;-59
2022/02/21 02:51:58;;;;;;;7.80;1.08;;;4.00;99.90;;;;;;5045034;28;20025;-59
2022/02/21 02:54:24;;;;;;;11.15;2.03;;;3.90;99.90;;;;;;5043180;28;20064;-59
2022/02/21 02:56:50;;;;;;;8.93;1.33;;;3.90;99.90;;;;;;5043685;28;20183;-59
2022/02/21 02:59:16;;;;;;;10.13;1.48;;;3.90;99.90;;;;;;5041234;28;20104;-60
2022/02/21 03:01:41;;;;;;;15.20;1.80;;;4.00;99.90;;;;;;5035321;28;20048;-60
2022/02/21 03:04:08;;;;;;;10.57;1.38;;;4.00;99.90;;;;;;5032917;28;20021;-60
2022/02/21 03:06:34;;;;;;;5.90;1.15;;;4.00;99.90;;;;;;5033773;28;20127;-59
2022/02/21 03:09:00;;;;;;;6.03;1.30;;;4.10;99.90;;;;;;5043872;28;20128;-59
2022/02/21 03:11:26;;;;;;;6.80;1.00;;;4.10;99.90;;;;;;5035791;28;20036;-58
2022/02/21 03:13:52;;;;;;;4.95;1.50;;;4.00;99.90;;;;;;5033995;28;20033;-58
2022/02/21 03:16:18;;;;;;;3.97;0.90;;;3.90;99.90;;;;;;5038006;28;20037;-59
2022/02/21 03:18:44;;;;;;;2.67;0.60;;;3.90;99.90;;;;;;5037757;28;20027;-59
2022/02/21 03:21:10;;;;;;;8.15;1.20;;;3.90;99.90;;;;;;5042901;28;20029;-59
2022/02/21 03:23:35;;;;;;;9.07;1.05;;;3.80;99.90;;;;;;5032279;28;20034;-59
2022/02/21 03:26:01;;;;;;;8.23;1.30;;;3.70;99.90;;;;;;5036338;28;20026;-56
2022/02/21 03:28:26;;;;;;;5.05;1.50;;;3.60;99.90;;;;;;5037125;28;20082;-58
2022/02/21 03:30:53;;;;;;;5.05;1.20;;;3.60;99.90;;;;;;5033611;28;20038;-60
2022/02/21 03:33:19;;;;;;;4.38;0.90;;;3.50;99.90;;;;;;5032858;28;20465;-58
2022/02/21 03:35:44;;;;;;;8.40;1.13;;;3.50;99.90;;;;;;5034607;28;20022;-59
2022/02/21 03:38:10;;;;;;;12.75;3.90;;;3.40;99.90;;;;;;5041490;28;20028;-59
2022/02/21 03:40:35;;;;;;;11.50;2.10;;;3.50;99.90;;;;;;5038959;28;20123;-60
2022/02/21 03:43:01;;;;;;;7.55;1.30;;;3.40;99.90;;;;;;5033477;28;20025;-59
2022/02/21 03:45:27;;;;;;;10.82;1.55;;;3.50;99.90;;;;;;5038144;28;20091;-58
2022/02/21 03:47:53;;;;;;;9.18;1.25;;;3.50;99.90;;;;;;5032994;28;20190;-59
2022/02/21 03:50:20;;;;;;;6.97;1.40;;;3.50;99.90;;;;;;5040344;28;20511;-59
2022/02/21 03:52:46;;;;;;;7.78;1.50;;;3.50;99.90;;;;;;5039449;28;20215;-60
2022/02/21 03:55:12;;;;;;;4.10;1.10;;;3.50;99.90;;;;;;5049717;28;20029;-59
2022/02/21 03:57:38;;;;;;;13.00;1.77;;;3.50;99.90;;;;;;5051856;28;20033;-58
2022/02/21 04:00:06;;;;;;;9.38;1.33;;;3.50;99.90;;;;;;5036770;28;20123;-57
2022/02/21 04:02:32;;;;;;;9.07;1.58;;;3.60;99.90;;;;;;5039975;28;20037;-59
2022/02/21 04:05:00;;;;;;;11.90;1.55;;;3.60;99.90;;;;;;5033654;28;20025;-60
2022/02/21 04:07:29;;;;;;;10.88;2.05;;;3.70;99.90;;;;;;5030454;28;20053;-60
2022/02/21 04:09:55;;;;;;;6.07;1.38;;;3.70;99.90;;;;;;5031488;28;20033;-59
2022/02/21 04:12:21;;;;;;;10.05;1.92;;;3.80;99.90;;;;;;5048915;28;20078;-59
2022/02/21 04:14:47;;;;;;;11.98;1.85;;;3.80;99.90;;;;;;5033355;28;20131;-59
2022/02/21 04:17:13;;;;;;;10.60;3.08;;;3.80;99.90;;;;;;5042715;28;20148;-59
2022/02/21 04:19:39;;;;;;;7.40;1.40;;;3.80;99.90;;;;;;5031029;28;20033;-59
2022/02/21 04:22:09;;;;;;;9.95;1.35;;;3.90;99.90;;;;;;5040339;28;20482;-57
2022/02/21 04:24:35;;;;;;;14.35;2.38;;;3.90;99.90;;;;;;5034781;28;20096;-59
2022/02/21 04:27:00;;;;;;;5.70;1.10;;;4.00;99.90;;;;;;5037954;28;20040;-59
2022/02/21 04:29:26;;;;;;;5.63;1.13;;;3.90;99.90;;;;;;5034226;28;20530;-59
2022/02/21 04:31:52;;;;;;;6.63;1.52;;;3.70;99.90;;;;;;5035632;28;20033;-60
2022/02/21 04:34:17;;;;;;;2.97;1.52;;;3.60;99.90;;;;;;5037317;28;20064;-59
2022/02/21 04:36:43;;;;;;;5.40;1.10;;;3.20;99.90;;;;;;5044862;28;20082;-59
2022/02/21 04:39:08;;;;;;;8.70;2.05;;;3.20;99.90;;;;;;5038900;28;20503;-59
2022/02/21 04:41:34;;;;;;;4.80;1.25;;;3.00;99.90;;;;;;5038502;28;20040;-59
2022/02/21 04:44:00;;;;;;;5.68;1.30;;;2.90;99.90;;;;;;5040428;28;20059;-59
2022/02/21 04:46:26;;;;;;;7.00;1.27;;;2.80;99.90;;;;;;5037982;28;20037;-60
2022/02/21 04:48:51;;;;;;;8.90;1.15;;;2.80;99.90;;;;;;5035925;28;20091;-59
2022/02/21 04:51:17;;;;;;;3.17;0.93;;;2.80;99.90;;;;;;5044662;28;20029;-57
2022/02/21 04:53:43;;;;;;;6.32;1.50;;;2.80;99.90;;;;;;5036891;28;20029;-59
2022/02/21 04:56:08;;;;;;;1.58;0.80;;;2.70;99.90;;;;;;5038092;28;20452;-59
2022/02/21 04:58:34;;;;;;;4.40;1.13;;;2.70;99.90;;;;;;5037478;28;20116;-59
2022/02/21 05:00:59;;;;;;;2.90;1.23;;;2.60;99.90;;;;;;5039047;28;20040;-58
2022/02/21 05:03:25;;;;;;;7.22;1.52;;;2.60;99.90;;;;;;5040696;28;20056;-59
2022/02/21 05:05:50;;;;;;;7.68;1.48;;;2.50;99.90;;;;;;5043197;28;20402;-59
2022/02/21 05:08:16;;;;;;;4.68;1.25;;;2.50;99.90;;;;;;5016780;28;20132;-59
2022/02/21 05:10:41;;;;;;;6.20;1.45;;;2.50;99.90;;;;;;5044679;28;20064;-58
2022/02/21 05:13:07;;;;;;;7.03;1.13;;;2.50;99.90;;;;;;5040250;28;20028;-59
2022/02/21 05:15:32;;;;;;;8.38;1.75;;;2.60;99.90;;;;;;5041772;28;20048;-59
2022/02/21 05:17:58;;;;;;;8.48;1.75;;;2.60;99.90;;;;;;5043676;28;20516;-59
2022/02/21 05:20:23;;;;;;;11.82;2.10;;;2.70;99.90;;;;;;5044126;28;20033;-59
2022/02/21 05:22:49;;;;;;;8.90;1.70;;;2.80;99.90;;;;;;5041108;28;20096;-60
2022/02/21 05:25:15;;;;;;;11.07;1.90;;;2.80;99.90;;;;;;5038264;28;20042;-58
2022/02/21 05:27:41;;;;;;;9.45;2.03;;;3.00;99.90;;;;;;5042451;28;20025;-60
2022/02/21 05:30:08;;;;;;;13.63;2.25;;;3.00;99.90;;;;;;5042914;28;20106;-58
2022/02/21 05:32:34;;;;;;;8.05;1.50;;;3.10;99.90;;;;;;5042887;28;20044;-59
2022/02/21 05:35:00;;;;;;;14.80;3.25;;;3.20;99.90;;;;;;5042122;28;20499;-59
2022/02/21 05:37:26;;;;;;;13.05;2.10;;;3.20;99.90;;;;;;5042497;28;20094;-59
2022/02/21 05:39:52;;;;;;;16.02;4.55;;;3.30;99.90;;;;;;5039047;28;20029;-60
2022/02/21 05:42:18;;;;;;;15.45;2.70;;;3.40;99.90;;;;;;5038085;28;20033;-55
2022/02/21 05:44:44;;;;;;;17.95;3.35;;;3.50;99.90;;;;;;5038493;28;20056;-57
2022/02/21 05:47:09;;;;;;;9.93;1.67;;;3.70;99.90;;;;;;5041790;28;20096;-59
2022/02/21 05:49:35;;;;;;;16.80;2.47;;;3.80;99.90;;;;;;5040136;28;20410;-60
2022/02/21 05:52:01;;;;;;;22.52;5.38;;;3.90;99.90;;;;;;5037901;28;20017;-60
2022/02/21 05:54:27;;;;;;;16.00;3.65;;;3.90;99.90;;;;;;5035255;28;20442;-60
2022/02/21 05:56:54;;;;;;;15.05;2.30;;;3.80;99.90;;;;;;5043176;28;20029;-59
2022/02/21 05:59:19;;;;;;;11.75;2.00;;;3.80;99.90;;;;;;5041118;28;20044;-59
2022/02/21 06:01:45;;;;;;;20.58;2.97;;;3.80;99.90;;;;;;5041373;28;20037;-60
2022/02/21 06:04:11;;;;;;;12.80;2.75;;;3.70;99.90;;;;;;5040150;28;20033;-59
2022/02/21 06:06:36;;;;;;;20.98;3.60;;;3.70;99.90;;;;;;5027338;28;20122;-59
2022/02/21 06:09:03;;;;;;;14.60;2.63;;;3.70;99.90;;;;;;5037139;28;20052;-59
2022/02/21 06:11:29;;;;;;;18.10;5.45;;;3.70;99.90;;;;;;5030154;28;20040;-59
2022/02/21 06:13:54;;;;;;;16.02;2.80;;;3.70;99.90;;;;;;5017331;28;20066;-59
2022/02/21 06:16:20;;;;;;;14.73;2.92;;;3.70;99.90;;;;;;5023049;28;20387;-58
2022/02/21 06:18:46;;;;;;;17.83;3.10;;;3.70;99.90;;;;;;5020692;28;20068;-58
2022/02/21 06:21:12;;;;;;;18.42;3.05;;;3.60;99.90;;;;;;5023920;28;20037;-59
2022/02/21 06:23:37;;;;;;;11.02;1.95;;;3.60;99.90;;;;;;5016715;28;20034;-59
2022/02/21 06:26:04;;;;;;;15.77;2.28;;;3.60;99.90;;;;;;5019543;28;20026;-60
2022/02/21 06:28:29;;;;;;;12.85;2.70;;;3.60;99.90;;;;;;5018551;28;20030;-59
2022/02/21 06:30:55;;;;;;;15.95;3.42;;;3.60;99.90;;;;;;5024527;28;20529;-60
2022/02/21 06:33:20;;;;;;;14.13;3.13;;;3.60;99.90;;;;;;5021169;28;20053;-60
2022/02/21 06:35:46;;;;;;;12.68;2.55;;;3.70;99.90;;;;;;5023623;28;20033;-61
2022/02/21 06:38:12;;;;;;;9.90;2.13;;;3.70;99.90;;;;;;5020725;28;20033;-61
2022/02/21 06:40:38;;;;;;;9.65;2.03;;;3.70;99.90;;;;;;5021386;28;20080;-61
2022/02/21 06:43:04;;;;;;;16.58;3.55;;;3.80;99.90;;;;;;5022119;28;20403;-60
2022/02/21 06:45:30;;;;;;;21.75;3.53;;;3.70;99.90;;;;;;5018357;28;20040;-60
2022/02/21 06:47:56;;;;;;;24.48;4.63;;;3.70;99.90;;;;;;5025406;28;20033;-60
2022/02/21 06:50:23;;;;;;;18.45;3.22;;;3.80;99.90;;;;;;5028650;28;20053;-60
2022/02/21 06:52:48;;;;;;;15.52;2.90;;;3.90;99.90;;;;;;5019000;28;20032;-59
2022/02/21 06:55:14;;;;;;;16.80;3.42;;;4.00;99.90;;;;;;5013895;28;20037;-58
2022/02/21 06:57:42;;;;;;;12.93;2.40;;;4.10;99.90;;;;;;5022807;28;20483;-60
2022/02/21 07:00:08;;;;;;;12.15;2.17;;;4.10;99.90;;;;;;5020112;28;20029;-60
2022/02/21 07:02:33;;;;;;;12.77;2.30;;;4.00;99.90;;;;;;5022520;28;20448;-58
2022/02/21 07:04:59;;;;;;;12.30;2.47;;;3.70;99.90;;;;;;5022901;28;20025;-60
2022/02/21 07:07:25;;;;;;;13.88;2.13;;;3.60;99.90;;;;;;5009887;28;20041;-60
2022/02/21 07:09:50;;;;;;;11.32;2.30;;;3.30;99.90;;;;;;5037105;28;20025;-58
2022/02/21 07:12:17;;;;;;;11.25;2.50;;;3.20;99.90;;;;;;5037484;28;20034;-60
2022/02/21 07:14:43;;;;;;;13.65;2.63;;;3.20;99.90;;;;;;5032898;28;20029;-59
2022/02/21 07:17:09;;;;;;;9.07;2.03;;;3.10;99.90;;;;;;5035980;28;20027;-56
2022/02/21 07:19:35;;;;;;;14.35;3.00;;;3.00;99.90;;;;;;5036137;28;20037;-60
2022/02/21 07:22:00;;;;;;;18.65;4.38;;;2.90;99.90;;;;;;5040416;28;20028;-61
2022/02/21 07:24:26;;;;;;;19.55;4.13;;;2.90;99.90;;;;;;5034053;28;20069;-60
2022/02/21 07:26:53;;;;;;;14.48;2.55;;;2.90;99.90;;;;;;5033343;28;20037;-61
2022/02/21 07:29:19;;;;;;;17.98;3.63;;;3.00;99.90;;;;;;5036875;28;20078;-60
2022/02/21 07:31:44;;;;;;;13.45;3.00;;;3.00;99.90;;;;;;5031489;28;20029;-59
2022/02/21 07:34:10;;;;;;;13.60;2.25;;;3.10;99.90;;;;;;5048850;28;20038;-60
2022/02/21 07:36:35;;;;;;;8.38;1.90;;;3.10;99.90;;;;;;5042624;28;20025;-61
2022/02/21 07:39:01;;;;;;;17.38;3.05;;;3.10;99.90;;;;;;5039810;28;20065;-60
2022/02/21 07:41:28;;;;;;;12.35;2.03;;;3.20;99.90;;;;;;5032583;28;20040;-56
2022/02/21 07:43:54;;;;;;;21.50;5.20;;;3.20;99.90;;;;;;5035640;28;20112;-58
2022/02/21 07:46:19;;;;;;;13.82;2.10;;;3.30;99.90;;;;;;5038001;28;20470;-60
2022/02/21 07:48:45;;;;;;;11.82;1.90;;;3.40;99.90;;;;;;5032966;28;20490;-58
2022/02/21 07:51:11;;;;;;;7.18;1.88;;;3.50;99.90;;;;;;5039705;28;20437;-60
2022/02/21 07:53:36;;;;;;;19.33;2.35;;;3.60;99.90;;;;;;5037355;28;20053;-59
2022/02/21 07:56:02;;;;;;;14.23;3.10;;;3.70;99.90;;;;;;5043959;28;20028;-61
2022/02/21 07:58:27;;;;;;;19.80;2.50;;;3.80;99.90;;;;;;5039765;28;20025;-61
2022/02/21 08:00:53;;;;;;;12.75;1.98;;;3.90;99.90;;;;;;5034271;28;20021;-59
2022/02/21 08:03:18;;;;;;;7.97;1.88;;;4.10;99.90;;;;;;5037065;28;20028;-60
2022/02/21 08:05:44;;;;;;;14.48;2.97;;;4.20;99.90;;;;;;5035761;28;20120;-59
2022/02/21 08:08:10;;;;;;;20.83;3.33;;;4.40;99.90;;;;;;5025086;28;20117;-60
2022/02/21 08:10:36;;;;;;;7.47;1.88;;;4.50;99.90;;;;;;5043951;28;20029;-59
2022/02/21 08:13:02;;;;;;;8.55;2.17;;;4.60;99.90;;;;;;5033410;28;20017;-60
2022/02/21 08:15:28;;;;;;;9.50;1.95;;;4.70;99.90;;;;;;5033000;28;20033;-59
2022/02/21 08:17:53;;;;;;;8.82;2.00;;;4.70;99.90;;;;;;5032992;28;20037;-58
2022/02/21 08:20:21;;;;;;;14.73;2.22;;;4.80;99.90;;;;;;5032796;28;20045;-60
2022/02/21 08:22:48;;;;;;;6.88;2.13;;;4.80;99.90;;;;;;5037085;28;20454;-60
2022/02/21 08:25:14;;;;;;;13.07;1.73;;;4.80;99.90;;;;;;5033461;28;20026;-60
2022/02/21 08:27:42;;;;;;;14.98;2.40;;;4.80;99.90;;;;;;5036154;28;20551;-58
2022/02/21 08:30:11;;;;;;;6.40;1.73;;;4.80;99.90;;;;;;5029361;28;20037;-57
2022/02/21 08:32:37;;;;;;;10.93;2.08;;;4.80;99.90;;;;;;5037799;28;20025;-60
2022/02/21 08:35:03;;;;;;;14.90;2.42;;;4.80;99.90;;;;;;5038790;28;20025;-60
2022/02/21 08:37:29;;;;;;;14.80;2.55;;;4.90;99.90;;;;;;5043057;28;20034;-60
2022/02/21 08:39:55;;;;;;;14.05;2.13;;;4.90;99.90;;;;;;5037581;28;20513;-59
2022/02/21 08:42:20;;;;;;;10.90;2.05;;;4.80;99.90;;;;;;5036863;28;20034;-60
2022/02/21 08:44:46;;;;;;;13.65;2.10;;;4.90;99.90;;;;;;5033891;28;20044;-60
2022/02/21 08:47:14;;;;;;;9.60;2.10;;;5.00;99.90;;;;;;5033595;28;20036;-58
2022/02/21 08:49:40;;;;;;;4.47;2.03;;;5.10;99.90;;;;;;5034956;28;20499;-59
2022/02/21 08:52:06;;;;;;;8.35;2.22;;;5.00;99.90;;;;;;5049958;28;20029;-56
2022/02/21 08:54:35;;;;;;;11.45;1.63;;;4.90;99.90;;;;;;5037780;28;20049;-59
2022/02/21 08:57:04;;;;;;;9.32;2.30;;;4.80;99.90;;;;;;5038567;28;20029;-60
2022/02/21 08:59:31;;;;;;;9.02;1.60;;;4.80;99.90;;;;;;5036847;28;20032;-59
2022/02/21 09:01:56;;;;;;;7.47;2.03;;;4.80;99.90;;;;;;5039379;28;20059;-60
2022/02/21 09:04:22;;;;;;;8.48;2.30;;;4.90;99.90;;;;;;5039740;28;20483;-60
2022/02/21 09:06:48;;;;;;;7.82;1.67;;;5.00;99.90;;;;;;5039353;28;20033;-60
2022/02/21 09:09:14;;;;;;;10.45;2.30;;;5.00;99.90;;;;;;5018350;28;20095;-59
2022/02/21 09:11:40;;;;;;;10.90;1.85;;;5.10;99.90;;;;;;5036138;28;20049;-60
2022/02/21 09:14:06;;;;;;;9.48;2.05;;;5.10;99.90;;;;;;5037064;28;20029;-57
2022/02/21 09:16:31;;;;;;;12.07;2.67;;;5.20;99.90;;;;;;5034579;28;20025;-60
2022/02/21 09:18:57;;;;;;;6.18;1.73;;;5.20;99.90;;;;;;5034023;28;20513;-60
2022/02/21 09:21:23;;;;;;;15.35;2.20;;;5.30;99.90;;;;;;5045070;28;20087;-60
2022/02/21 09:23:48;;;;;;;12.63;1.90;;;5.30;99.90;;;;;;5041521;28;20456;-60
2022/02/21 09:26:14;;;;;;;8.73;2.50;;;5.40;99.90;;;;;;5036902;28;20033;-60
2022/02/21 09:28:39;;;;;;;8.32;2.10;;;5.50;99.90;;;;;;5043832;28;20025;-60
2022/02/21 09:31:05;;;;;;;10.57;3.17;;;5.70;99.90;;;;;;5037230;28;20111;-60
2022/02/21 09:33:30;;;;;;;15.85;3.83;;;5.90;99.90;;;;;;5039586;28;20041;-60
2022/02/21 09:35:56;;;;;;;11.75;2.22;;;6.10;99.90;;;;;;5044578;28;20041;-60
2022/02/21 09:38:21;;;;;;;6.60;1.55;;;6.60;99.90;;;;;;5043986;28;20079;-60
2022/02/21 09:40:50;;;;;;;13.88;2.10;;;6.70;99.90;;;;;;5035517;28;20025;-58
2022/02/21 09:43:19;;;;;;;13.98;4.55;;;6.70;99.90;;;;;;5036781;28;20033;-60
2022/02/21 09:45:45;;;;;;;12.65;2.50;;;6.90;99.90;;;;;;5042268;28;20084;-60
2022/02/21 09:48:15;;;;;;;9.82;2.70;;;7.00;99.90;;;;;;5040433;28;22001;-60
2022/02/21 09:50:41;;;;;;;8.55;2.42;;;7.40;99.90;;;;;;5038125;28;20100;-60
2022/02/21 09:53:08;;;;;;;8.75;2.33;;;7.70;99.90;;;;;;5043909;28;20059;-60
2022/02/21 09:55:35;;;;;;;8.65;3.10;;;7.50;99.90;;;;;;5039968;28;20063;-59
2022/02/21 09:58:01;;;;;;;14.13;4.47;;;7.70;99.90;;;;;;5036468;28;20112;-60
2022/02/21 10:00:27;;;;;;;11.27;2.05;;;7.90;99.90;;;;;;5038327;28;20037;-60
2022/02/21 10:02:52;;;;;;;29.80;7.30;;;7.90;99.90;;;;;;5031194;28;20033;-60
2022/02/21 10:05:25;;;;;;;15.10;2.78;;;7.90;99.90;;;;;;5038904;28;20037;-60
2022/02/21 10:07:52;;;;;;;17.23;3.20;;;7.90;99.90;;;;;;5024337;28;20045;-60
2022/02/21 10:10:21;;;;;;;11.80;1.85;;;8.00;99.90;;;;;;5043990;28;20028;-59
2022/02/21 10:12:54;;;;;;;7.05;2.05;;;7.80;99.60;;;;;;5036581;28;20111;-57
2022/02/21 10:15:23;;;;;;;10.52;2.70;;;7.40;99.90;;;;;;5036050;28;20029;-60
2022/02/21 10:17:49;;;;;;;14.55;3.33;;;7.30;99.90;;;;;;5044815;28;20094;-59
2022/02/21 10:20:17;;;;;;;14.57;3.03;;;7.00;99.90;;;;;;5042265;28;20098;-59
2022/02/21 10:23:04;;;;;;;14.43;4.53;;;6.70;99.90;;;;;;5042965;28;20056;-59
2022/02/21 10:25:30;;;;;;;12.07;2.30;;;6.60;99.90;;;;;;5038356;28;20369;-58
2022/02/21 10:27:59;;;;;;;11.23;1.50;;;6.50;99.90;;;;;;5041697;28;20029;-59
2022/02/21 10:30:27;;;;;;;16.77;2.38;;;6.40;99.90;;;;;;5037114;28;20026;-59
2022/02/21 10:32:52;;;;;;;15.95;2.92;;;6.40;99.90;;;;;;5040902;28;20021;-59
2022/02/21 10:35:30;;;;;;;12.20;3.42;;;6.50;99.90;;;;;;5044157;28;20087;-59
2022/02/21 10:37:58;;;;;;;26.80;8.60;;;6.40;99.90;;;;;;5032316;28;20029;-60
2022/02/21 10:40:35;;;;;;;16.10;4.00;;;6.40;99.90;;;;;;5034806;28;20033;-60
2022/02/21 10:43:17;;;;;;;15.77;4.70;;;6.30;99.90;;;;;;5038366;28;20481;-59
2022/02/21 10:45:44;;;;;;;17.88;3.08;;;6.30;99.90;;;;;;5033957;28;20475;-60
2022/02/21 10:48:11;;;;;;;15.55;4.63;;;6.30;99.90;;;;;;5042707;28;20021;-58
2022/02/21 10:50:58;;;;;;;20.17;3.95;;;6.30;99.90;;;;;;5044097;28;20589;-59
2022/02/21 10:53:34;;;;;;;17.58;3.17;;;6.40;99.90;;;;;;5034919;28;20140;-60
2022/02/21 10:56:00;;;;;;;6.15;1.63;;;6.40;99.90;;;;;;5038050;28;20113;-58
2022/02/21 10:58:27;;;;;;;9.18;2.25;;;6.40;99.90;;;;;;5028870;28;20581;-58
2022/02/21 11:00:55;;;;;;;13.10;2.28;;;6.40;99.90;;;;;;5039012;28;20028;-59
2022/02/21 11:03:23;;;;;;;16.63;2.65;;;6.40;99.90;;;;;;5037449;28;20115;-60
2022/02/21 11:05:49;;;;;;;11.52;2.35;;;6.30;99.90;;;;;;5033708;28;20026;-59
2022/02/21 11:08:16;;;;;;;13.68;2.35;;;6.10;99.90;;;;;;5025992;28;20042;-60
2022/02/21 11:10:58;;;;;;;12.23;1.73;;;6.10;99.90;;;;;;5034430;28;20025;-60
2022/02/21 11:13:25;;;;;;;9.25;1.75;;;5.90;99.90;;;;;;5038096;28;20036;-59
2022/02/21 11:15:52;;;;;;;9.75;2.63;;;5.80;99.90;;;;;;5039895;28;20035;-60
2022/02/21 11:18:19;;;;;;;9.15;1.77;;;5.70;99.90;;;;;;5031129;28;20068;-60
2022/02/21 11:20:45;;;;;;;6.43;1.60;;;5.70;99.90;;;;;;5034395;28;20051;-61
2022/02/21 11:23:11;;;;;;;26.02;7.20;;;5.50;99.90;;;;;;5037866;28;20406;-60
2022/02/21 11:26:10;;;;;;;11.93;2.83;;;5.50;99.90;;;;;;5044510;28;20034;-60
2022/02/21 11:28:52;;;;;;;14.43;3.95;;;5.50;99.90;;;;;;5035125;28;20060;-60
2022/02/21 11:31:29;;;;;;;8.98;2.58;;;5.40;99.90;;;;;;5034070;28;20025;-59
2022/02/21 11:34:02;;;;;;;8.73;2.45;;;5.30;99.90;;;;;;5033927;28;20391;-60
2022/02/21 11:36:29;;;;;;;8.45;1.90;;;5.40;99.90;;;;;;5035954;28;20613;-60
2022/02/21 11:38:56;;;;;;;14.75;2.90;;;5.30;99.90;;;;;;5039945;28;20053;-60
2022/02/21 11:41:35;;;;;;;77.72;28.83;;;5.30;99.90;;;;;;5035384;28;20033;-60
2022/02/21 11:44:21;;;;;;;36.05;14.25;;;5.40;99.90;;;;;;5045674;28;20029;-60
2022/02/21 11:46:47;;;;;;;9.60;3.00;;;5.30;99.90;;;;;;5035854;28;20047;-60
2022/02/21 11:49:29;;;;;;;26.38;8.75;;;5.40;99.90;;;;;;5038877;28;20017;-60
2022/02/21 11:51:57;;;;;;;36.60;12.13;;;5.40;99.90;;;;;;5039084;28;20433;-60
2022/02/21 11:54:22;;;;;;;70.68;25.10;;;5.40;99.90;;;;;;5033507;28;20502;-59
2022/02/21 11:56:48;;;;;;;267.42;77.28;;;5.30;99.90;;;;;;5033591;28;20064;-58
2022/02/21 11:59:22;;;;;;;13.85;5.30;;;5.30;99.90;;;;;;5037822;28;20407;-60
2022/02/21 12:02:15;;;;;;;16.45;5.30;;;5.30;99.90;;;;;;5041403;28;20037;-59
2022/02/21 12:04:57;;;;;;;15.63;4.07;;;5.20;99.90;;;;;;5031531;28;20048;-59
2022/02/21 12:07:35;;;;;;;22.40;6.32;;;5.00;99.90;;;;;;5036651;28;20168;-60
2022/02/21 12:10:21;;;;;;;21.83;9.13;;;4.90;99.90;;;;;;5023557;28;20510;-59
2022/02/21 12:13:02;;;;;;;21.73;7.38;;;4.80;99.90;;;;;;5037083;28;20395;-60
2022/02/21 12:15:31;;;;;;;44.72;15.50;;;4.80;99.90;;;;;;5043535;28;20037;-60
2022/02/21 12:18:23;;;;;;;19.33;5.72;;;4.80;99.90;;;;;;5034108;28;20032;-60
2022/02/21 12:20:49;;;;;;;20.20;7.53;;;4.80;99.90;;;;;;5036941;28;20033;-60
2022/02/21 12:23:14;;;;;;;25.67;7.18;;;4.80;99.90;;;;;;5045895;28;20148;-60
2022/02/21 12:26:06;;;;;;;23.55;7.82;;;4.80;99.90;;;;;;5036981;28;20024;-60
2022/02/21 12:28:35;;;;;;;28.30;7.25;;;4.80;99.90;;;;;;5038294;28;20076;-60
2022/02/21 12:31:01;;;;;;;16.90;6.18;;;4.80;99.90;;;;;;5035061;28;20499;-60
2022/02/21 12:33:29;;;;;;;13.98;3.88;;;4.80;99.90;;;;;;5028752;28;20456;-59
2022/02/21 12:35:57;;;;;;;12.77;4.22;;;4.80;99.90;;;;;;5040361;28;20037;-60
2022/02/21 12:38:24;;;;;;;27.63;9.50;;;4.80;99.90;;;;;;5047457;28;20028;-60
2022/02/21 12:40:59;;;;;;;13.75;4.25;;;4.80;99.90;;;;;;5045889;28;20544;-60
2022/02/21 12:43:45;;;;;;;15.98;4.45;;;4.90;99.90;;;;;;5037649;28;20032;-60
2022/02/21 12:46:16;;;;;;;6.30;2.40;;;4.90;99.90;;;;;;5038061;28;20028;-59
2022/02/21 12:48:43;;;;;;;3.90;1.80;;;4.90;99.90;;;;;;5038473;28;20079;-60
2022/02/21 12:51:16;;;;;;;5.10;1.55;;;5.00;99.90;;;;;;5039411;28;20060;-59